Time;durP1;ratioP1;P1;durP2;ratioP2;P2;SDS_P1;SDS_P2;PMS_P1;PMS_P2;Temp;Humidity;BMP_temperature;BMP_pressure;BME280_temperature;BME280_humidity;BME280_pressure;Samples;Min_cycle;Max_cycle;Signal;HPM_P1;HPM_P2
2023/09/19 00:02:06;;;;;;;16.35;12.30;;;17.70;99.90;;;;;;4912118;29;20130;-66
2023/09/19 00:04:33;;;;;;;14.30;12.43;;;17.70;99.90;;;;;;4915119;29;20202;-68
2023/09/19 00:07:02;;;;;;;13.50;11.80;;;17.80;99.90;;;;;;4915237;29;20051;-70
2023/09/19 00:09:29;;;;;;;20.80;11.52;;;17.80;99.90;;;;;;4911784;29;20092;-69
2023/09/19 00:11:56;;;;;;;14.20;11.73;;;17.80;99.90;;;;;;4921137;29;20181;-71
2023/09/19 00:14:25;;;;;;;14.43;12.90;;;17.80;99.90;;;;;;4919677;29;20075;-66
2023/09/19 00:16:52;;;;;;;18.67;12.80;;;17.80;99.90;;;;;;4915726;29;20099;-67
2023/09/19 00:19:19;;;;;;;17.25;12.73;;;17.90;99.90;;;;;;4910063;29;20814;-73
2023/09/19 00:21:47;;;;;;;18.30;12.77;;;17.80;99.90;;;;;;4912258;29;20056;-68
2023/09/19 00:24:13;;;;;;;21.40;14.18;;;17.90;99.90;;;;;;4912586;29;20060;-66
2023/09/19 00:26:40;;;;;;;13.73;12.48;;;17.90;99.90;;;;;;4914069;29;20066;-66
2023/09/19 00:29:08;;;;;;;15.25;13.82;;;17.90;99.90;;;;;;4915092;29;20067;-84
2023/09/19 00:31:37;;;;;;;16.38;14.68;;;17.90;99.90;;;;;;4926275;29;20047;-68
2023/09/19 00:34:05;;;;;;;16.98;15.27;;;17.90;99.90;;;;;;4914320;29;20086;-70
2023/09/19 00:36:33;;;;;;;15.45;13.80;;;18.00;99.90;;;;;;4915379;29;20044;-72
2023/09/19 00:39:00;;;;;;;16.65;14.55;;;18.00;99.90;;;;;;4914837;29;20075;-66
2023/09/19 00:41:30;;;;;;;17.67;13.32;;;18.00;99.90;;;;;;4908825;29;20518;-68
2023/09/19 00:43:57;;;;;;;16.03;13.10;;;18.00;99.90;;;;;;4917390;29;20107;-66
2023/09/19 00:46:23;;;;;;;14.70;12.10;;;18.00;99.90;;;;;;4913719;29;20290;-67
2023/09/19 00:48:51;;;;;;;18.23;12.57;;;18.00;99.90;;;;;;4910103;29;20068;-68
2023/09/19 00:51:20;;;;;;;19.70;12.63;;;18.00;99.90;;;;;;4913698;29;20064;-69
2023/09/19 00:53:47;;;;;;;15.50;12.52;;;18.10;99.90;;;;;;4913888;29;20048;-66
2023/09/19 00:56:18;;;;;;;22.63;12.18;;;18.10;99.90;;;;;;4913408;29;20052;-65
2023/09/19 00:58:47;;;;;;;18.08;14.57;;;18.00;99.90;;;;;;4908410;29;20083;-66
2023/09/19 01:01:14;;;;;;;19.90;16.17;;;18.00;99.90;;;;;;4912500;29;20060;-71
2023/09/19 01:03:44;;;;;;;13.75;12.50;;;18.10;99.90;;;;;;4902838;29;20063;-66
2023/09/19 01:06:12;;;;;;;19.63;15.55;;;18.10;99.90;;;;;;4912850;29;20056;-68
2023/09/19 01:08:39;;;;;;;14.23;12.25;;;18.00;99.90;;;;;;4898481;29;20055;-70
2023/09/19 01:11:14;;;;;;;16.20;14.00;;;18.00;99.90;;;;;;4911903;29;20056;-69
2023/09/19 01:13:59;;;;;;;17.92;13.60;;;18.00;99.90;;;;;;4895693;29;20056;-66
2023/09/19 01:16:46;;;;;;;15.55;13.25;;;18.10;99.90;;;;;;4899964;29;20120;-67
2023/09/19 01:19:39;;;;;;;13.98;12.63;;;18.10;99.90;;;;;;4913528;29;20055;-65
2023/09/19 01:22:25;;;;;;;20.50;14.82;;;18.10;99.90;;;;;;4898919;29;20103;-67
2023/09/19 01:25:27;;;;;;;20.15;13.07;;;18.10;99.90;;;;;;4912891;29;20459;-73
2023/09/19 01:28:27;;;;;;;13.85;12.38;;;18.10;99.90;;;;;;4890190;29;20056;-66
2023/09/19 01:30:58;;;;;;;26.38;15.80;;;18.00;99.90;;;;;;4898913;29;20063;-72
2023/09/19 01:33:27;;;;;;;19.10;15.27;;;18.10;99.90;;;;;;4907619;29;20523;-72
2023/09/19 01:35:57;;;;;;;18.77;13.85;;;18.10;99.90;;;;;;4912487;29;20087;-66
2023/09/19 01:38:27;;;;;;;15.57;13.90;;;18.10;99.90;;;;;;4912950;29;20150;-66
2023/09/19 01:41:05;;;;;;;15.68;12.20;;;18.10;99.90;;;;;;4910952;29;20048;-67
2023/09/19 01:43:40;;;;;;;16.52;13.98;;;18.10;99.90;;;;;;4912914;29;20163;-66
2023/09/19 01:46:14;;;;;;;14.35;12.77;;;18.10;99.90;;;;;;4912578;29;20411;-71
2023/09/19 01:48:55;;;;;;;16.98;13.02;;;18.10;99.90;;;;;;4910168;29;20048;-67
2023/09/19 01:51:48;;;;;;;16.67;13.55;;;18.10;99.90;;;;;;4912406;29;20049;-66
2023/09/19 01:54:21;;;;;;;21.20;14.00;;;18.00;99.90;;;;;;4895685;29;20119;-66
2023/09/19 01:56:54;;;;;;;17.02;13.27;;;18.00;99.90;;;;;;4909474;29;20080;-70
2023/09/19 01:59:27;;;;;;;14.93;12.50;;;18.00;99.90;;;;;;4912050;29;20048;-74
2023/09/19 02:01:55;;;;;;;13.63;12.32;;;18.00;99.90;;;;;;4887592;29;20059;-73
2023/09/19 02:04:22;;;;;;;17.50;13.93;;;18.00;99.90;;;;;;4912326;29;20047;-72
2023/09/19 02:06:49;;;;;;;17.13;13.85;;;17.90;99.90;;;;;;4915620;29;20054;-66
2023/09/19 02:09:16;;;;;;;15.77;11.88;;;18.00;99.90;;;;;;4912624;29;20044;-68
2023/09/19 02:11:42;;;;;;;16.20;13.70;;;18.00;99.90;;;;;;4911442;29;20099;-66
2023/09/19 02:14:10;;;;;;;18.38;13.65;;;18.00;99.90;;;;;;4910357;29;20056;-66
2023/09/19 02:16:37;;;;;;;16.80;13.10;;;18.00;99.90;;;;;;4911942;29;20048;-70
2023/09/19 02:19:05;;;;;;;14.93;13.32;;;18.00;99.90;;;;;;4908539;29;20466;-68
2023/09/19 02:21:32;;;;;;;13.50;12.18;;;18.10;99.90;;;;;;4913011;29;20059;-66
2023/09/19 02:24:00;;;;;;;16.30;14.18;;;18.10;99.90;;;;;;4912284;29;20050;-75
2023/09/19 02:26:27;;;;;;;16.75;14.98;;;18.20;99.90;;;;;;4912660;29;20514;-66
2023/09/19 02:28:55;;;;;;;14.73;13.32;;;18.20;99.90;;;;;;4908517;29;20051;-67
2023/09/19 02:31:22;;;;;;;16.25;14.45;;;18.10;99.90;;;;;;4909512;29;20087;-66
2023/09/19 02:33:49;;;;;;;15.85;14.35;;;18.10;99.90;;;;;;4918009;29;20048;-66
2023/09/19 02:36:17;;;;;;;16.05;14.52;;;18.10;99.90;;;;;;4928002;29;20052;-69
2023/09/19 02:38:44;;;;;;;17.25;13.50;;;18.10;99.90;;;;;;4914869;29;20048;-69
2023/09/19 02:41:11;;;;;;;14.95;12.68;;;18.10;99.90;;;;;;4915493;29;20091;-69
2023/09/19 02:43:38;;;;;;;16.98;15.05;;;18.10;99.90;;;;;;4912808;29;20585;-77
2023/09/19 02:46:06;;;;;;;14.63;13.13;;;18.00;99.90;;;;;;4915173;29;20040;-66
2023/09/19 02:48:35;;;;;;;18.50;13.57;;;18.00;99.90;;;;;;4914327;29;20104;-66
2023/09/19 02:51:05;;;;;;;21.88;15.30;;;18.00;99.90;;;;;;4916818;29;20443;-67
2023/09/19 02:53:32;;;;;;;14.68;13.30;;;18.00;99.90;;;;;;4914782;29;20949;-66
2023/09/19 02:55:59;;;;;;;13.88;12.43;;;18.00;99.90;;;;;;4916558;29;20063;-66
2023/09/19 02:58:27;;;;;;;16.15;13.65;;;18.00;99.90;;;;;;4897501;29;20060;-74
2023/09/19 03:00:55;;;;;;;14.68;13.20;;;17.90;99.90;;;;;;4896564;29;20044;-67
2023/09/19 03:03:23;;;;;;;21.05;13.75;;;17.90;99.90;;;;;;4914461;29;20052;-66
2023/09/19 03:05:51;;;;;;;15.20;13.68;;;17.90;99.90;;;;;;4918310;29;20137;-68
2023/09/19 03:08:21;;;;;;;14.55;13.10;;;17.90;99.90;;;;;;4915996;29;20052;-77
2023/09/19 03:10:48;;;;;;;17.50;14.02;;;17.90;99.90;;;;;;4914356;29;20047;-71
2023/09/19 03:13:16;;;;;;;14.25;12.75;;;17.90;99.90;;;;;;4898404;29;20063;-77
2023/09/19 03:15:47;;;;;;;14.15;12.73;;;17.90;99.90;;;;;;4916587;29;20048;-67
2023/09/19 03:18:17;;;;;;;13.85;12.65;;;17.90;99.90;;;;;;4900730;29;20044;-70
2023/09/19 03:20:54;;;;;;;13.30;11.90;;;17.90;99.90;;;;;;4898150;29;20151;-66
2023/09/19 03:23:23;;;;;;;14.30;12.75;;;17.90;99.90;;;;;;4912554;29;20523;-68
2023/09/19 03:25:50;;;;;;;20.63;13.27;;;17.90;99.90;;;;;;4902319;29;20052;-71
2023/09/19 03:28:17;;;;;;;14.55;13.13;;;17.90;99.90;;;;;;4900578;29;20055;-67
2023/09/19 03:30:44;;;;;;;12.50;11.30;;;17.90;99.90;;;;;;4915257;29;20067;-66
2023/09/19 03:33:12;;;;;;;14.95;13.25;;;17.90;99.90;;;;;;4897433;29;20058;-73
2023/09/19 03:35:40;;;;;;;14.38;11.95;;;17.90;99.90;;;;;;4907677;29;20060;-67
2023/09/19 03:38:08;;;;;;;16.83;13.93;;;17.80;99.90;;;;;;4917399;29;20163;-71
2023/09/19 03:40:37;;;;;;;15.05;13.48;;;17.80;99.90;;;;;;4914203;29;20052;-65
2023/09/19 03:43:04;;;;;;;14.50;12.80;;;17.80;99.90;;;;;;4913015;29;20052;-70
2023/09/19 03:45:33;;;;;;;14.23;12.88;;;17.80;99.90;;;;;;4912353;29;20661;-76
2023/09/19 03:48:00;;;;;;;13.27;11.20;;;17.80;99.90;;;;;;4914203;29;20115;-69
2023/09/19 03:50:27;;;;;;;13.48;11.55;;;17.90;99.90;;;;;;4902930;29;20076;-66
2023/09/19 03:52:57;;;;;;;13.43;11.93;;;17.80;99.90;;;;;;4893148;29;20055;-70
2023/09/19 03:55:25;;;;;;;14.52;11.10;;;17.90;99.90;;;;;;4910235;29;20130;-66
2023/09/19 03:57:52;;;;;;;13.88;11.77;;;17.90;99.90;;;;;;4910205;29;20064;-69
2023/09/19 04:00:21;;;;;;;13.50;12.10;;;18.00;99.90;;;;;;4907059;29;20072;-71
2023/09/19 04:02:49;;;;;;;21.02;11.80;;;18.00;99.90;;;;;;4898817;29;20048;-72
2023/09/19 04:05:16;;;;;;;13.02;11.68;;;18.00;99.90;;;;;;4900833;29;20059;-76
2023/09/19 04:07:43;;;;;;;14.00;12.60;;;18.00;99.90;;;;;;4907352;29;20059;-69
2023/09/19 04:10:14;;;;;;;16.30;12.73;;;18.00;99.90;;;;;;4903700;29;20055;-66
2023/09/19 04:12:51;;;;;;;12.50;10.77;;;18.00;99.90;;;;;;4909183;29;20060;-69
2023/09/19 04:15:19;;;;;;;12.13;10.82;;;18.00;99.90;;;;;;4914447;29;20052;-66
2023/09/19 04:17:46;;;;;;;16.73;11.60;;;18.00;99.90;;;;;;4917036;29;20052;-66
2023/09/19 04:20:13;;;;;;;14.13;12.38;;;18.00;99.90;;;;;;4914540;29;20471;-71
2023/09/19 04:22:40;;;;;;;14.93;11.48;;;18.10;99.90;;;;;;4914821;29;20099;-65
2023/09/19 04:25:07;;;;;;;12.93;10.27;;;18.10;99.90;;;;;;4912074;29;20060;-79
2023/09/19 04:27:34;;;;;;;14.27;11.40;;;18.10;99.90;;;;;;4922197;29;20059;-68
2023/09/19 04:30:03;;;;;;;17.73;12.13;;;18.10;99.90;;;;;;4913469;29;20051;-72
2023/09/19 04:32:32;;;;;;;19.80;14.15;;;18.10;99.90;;;;;;4913146;29;20055;-68
2023/09/19 04:35:02;;;;;;;14.05;12.75;;;18.10;99.90;;;;;;4915285;29;20040;-65
2023/09/19 04:37:29;;;;;;;15.40;13.25;;;18.00;99.90;;;;;;4915038;29;20066;-66
2023/09/19 04:39:56;;;;;;;15.73;13.48;;;18.00;99.90;;;;;;4911793;29;20147;-65
2023/09/19 04:42:24;;;;;;;17.30;12.30;;;18.00;99.90;;;;;;4911859;29;20506;-68
2023/09/19 04:44:53;;;;;;;14.98;12.82;;;18.00;99.90;;;;;;4911170;29;20058;-67
2023/09/19 04:47:22;;;;;;;16.83;13.65;;;17.90;99.90;;;;;;4910689;29;20062;-73
2023/09/19 04:49:49;;;;;;;18.48;16.60;;;18.00;99.90;;;;;;4915405;29;20041;-67
2023/09/19 04:52:16;;;;;;;14.77;13.40;;;17.90;99.90;;;;;;4909620;29;20119;-69
2023/09/19 04:54:43;;;;;;;15.80;14.25;;;17.90;99.90;;;;;;4912466;29;20044;-68
2023/09/19 04:57:10;;;;;;;18.75;16.77;;;17.90;99.90;;;;;;4910370;29;20048;-70
2023/09/19 04:59:37;;;;;;;16.42;14.48;;;17.90;99.90;;;;;;4909828;29;20048;-67
2023/09/19 05:02:05;;;;;;;16.70;13.95;;;17.80;99.90;;;;;;4907655;29;20051;-68
2023/09/19 05:04:32;;;;;;;19.38;17.45;;;17.90;99.90;;;;;;4909855;29;20112;-70
2023/09/19 05:07:00;;;;;;;18.13;15.55;;;17.80;99.90;;;;;;4890665;29;20103;-65
2023/09/19 05:09:27;;;;;;;23.02;15.60;;;17.80;99.90;;;;;;4908522;29;20056;-65
2023/09/19 05:11:56;;;;;;;17.63;15.88;;;17.80;99.90;;;;;;4910712;29;20059;-69
2023/09/19 05:14:23;;;;;;;17.42;15.65;;;17.80;99.90;;;;;;4909812;29;20044;-68
2023/09/19 05:16:50;;;;;;;23.45;16.00;;;17.80;99.90;;;;;;4909363;29;20103;-65
2023/09/19 05:19:17;;;;;;;19.80;17.42;;;17.80;99.90;;;;;;4908585;29;20052;-72
2023/09/19 05:21:44;;;;;;;23.48;15.55;;;17.80;99.90;;;;;;4907383;29;20040;-66
2023/09/19 05:24:12;;;;;;;19.08;15.85;;;17.80;99.90;;;;;;4908638;29;20044;-66
2023/09/19 05:26:39;;;;;;;18.15;16.08;;;17.80;99.90;;;;;;4908603;29;20848;-70
2023/09/19 05:29:08;;;;;;;17.63;14.80;;;17.80;99.90;;;;;;4909850;29;20052;-67
2023/09/19 05:31:39;;;;;;;18.65;16.58;;;17.80;99.90;;;;;;4907110;29;20703;-67
2023/09/19 05:34:06;;;;;;;24.13;16.70;;;17.80;99.90;;;;;;4908466;29;20056;-66
2023/09/19 05:36:33;;;;;;;19.30;16.17;;;17.80;99.90;;;;;;4908838;29;20074;-70
2023/09/19 05:39:00;;;;;;;20.73;16.90;;;17.80;99.90;;;;;;4885393;29;20724;-74
2023/09/19 05:41:27;;;;;;;19.13;14.25;;;17.80;99.90;;;;;;4890492;29;20076;-65
2023/09/19 05:43:54;;;;;;;19.10;17.10;;;17.80;99.90;;;;;;4899328;29;20048;-66
2023/09/19 05:46:21;;;;;;;18.67;14.82;;;17.80;99.90;;;;;;4894502;29;20817;-73
2023/09/19 05:48:49;;;;;;;18.73;16.35;;;17.80;99.90;;;;;;4885441;29;20040;-74
2023/09/19 05:51:17;;;;;;;17.60;15.07;;;17.80;99.90;;;;;;4891810;29;20642;-69
2023/09/19 05:53:48;;;;;;;17.23;15.38;;;17.80;99.90;;;;;;4900448;29;20056;-67
2023/09/19 05:56:15;;;;;;;;;;;17.80;99.90;;;;;;4905345;29;20688;-68
2023/09/19 05:58:44;;;;;;;19.13;15.10;;;17.80;99.90;;;;;;4908050;29;19958;-65
2023/09/19 06:01:11;;;;;;;17.67;14.73;;;17.80;99.90;;;;;;4907742;29;20036;-66
2023/09/19 06:03:38;;;;;;;19.92;16.58;;;17.80;99.90;;;;;;4906169;29;20047;-67
2023/09/19 06:06:06;;;;;;;16.48;13.73;;;17.80;99.90;;;;;;4911141;29;20056;-65
2023/09/19 06:08:33;;;;;;;16.48;14.45;;;17.80;99.90;;;;;;4908320;29;20505;-65
2023/09/19 06:11:00;;;;;;;15.48;13.82;;;17.80;99.90;;;;;;4907767;29;20060;-69
2023/09/19 06:13:32;;;;;;;16.55;13.70;;;17.80;99.90;;;;;;4905071;29;20144;-65
2023/09/19 06:16:04;;;;;;;13.32;11.27;;;17.80;99.90;;;;;;4908934;29;20052;-65
2023/09/19 06:18:33;;;;;;;18.65;13.05;;;17.80;99.90;;;;;;4895412;29;20143;-67
2023/09/19 06:21:01;;;;;;;14.65;12.18;;;17.80;99.90;;;;;;4906471;29;20487;-67
2023/09/19 06:23:29;;;;;;;14.23;12.82;;;17.80;99.90;;;;;;4908701;29;20439;-66
2023/09/19 06:25:56;;;;;;;14.10;12.13;;;17.80;99.90;;;;;;4909788;29;20051;-68
2023/09/19 06:28:24;;;;;;;12.73;11.05;;;17.80;99.90;;;;;;4897922;29;20463;-64
2023/09/19 06:30:51;;;;;;;14.45;11.32;;;17.80;99.90;;;;;;4908888;29;20135;-76
2023/09/19 06:33:20;;;;;;;12.45;10.95;;;17.80;99.90;;;;;;4909487;29;20741;-66
2023/09/19 06:35:47;;;;;;;20.85;12.77;;;17.80;99.90;;;;;;4907496;29;20055;-67
2023/09/19 06:38:15;;;;;;;13.90;12.48;;;17.80;99.90;;;;;;4906604;29;20060;-65
2023/09/19 06:40:42;;;;;;;16.27;11.23;;;17.80;99.90;;;;;;4910273;29;20048;-68
2023/09/19 06:43:10;;;;;;;16.95;13.10;;;17.80;99.90;;;;;;4909180;29;20123;-65
2023/09/19 06:45:37;;;;;;;15.65;11.38;;;17.80;99.90;;;;;;4909205;29;20052;-68
2023/09/19 06:48:05;;;;;;;12.90;10.55;;;17.90;99.90;;;;;;4891004;29;20052;-68
2023/09/19 06:50:33;;;;;;;14.35;12.45;;;17.90;99.90;;;;;;4909076;29;20048;-67
2023/09/19 06:53:00;;;;;;;16.92;12.48;;;17.90;99.90;;;;;;4909113;29;20063;-65
2023/09/19 06:55:27;;;;;;;14.98;11.43;;;17.90;99.90;;;;;;4909153;29;20059;-71
2023/09/19 06:57:55;;;;;;;14.15;11.80;;;17.90;99.90;;;;;;4908024;29;20116;-69
2023/09/19 07:00:23;;;;;;;18.70;12.27;;;18.00;99.90;;;;;;4906458;29;20048;-70
2023/09/19 07:03:03;;;;;;;18.00;13.15;;;18.00;99.90;;;;;;4905759;29;20259;-68
2023/09/19 07:05:33;;;;;;;24.25;14.32;;;18.00;99.90;;;;;;4908518;29;20135;-69
2023/09/19 07:08:03;;;;;;;15.68;12.40;;;18.00;99.90;;;;;;4907187;29;20044;-67
2023/09/19 07:10:30;;;;;;;;;;;18.10;99.90;;;;;;4907270;29;20047;-66
2023/09/19 07:12:59;;;;;;;20.63;12.20;;;18.10;99.90;;;;;;4908570;29;19927;-69
2023/09/19 07:15:27;;;;;;;13.85;12.00;;;18.10;99.90;;;;;;4908858;29;20052;-66
2023/09/19 07:17:56;;;;;;;18.00;11.65;;;18.20;99.90;;;;;;4906589;29;20040;-66
2023/09/19 07:20:31;;;;;;;15.75;12.25;;;18.20;99.90;;;;;;4909387;29;20048;-66
2023/09/19 07:23:01;;;;;;;18.10;11.52;;;18.30;99.90;;;;;;4910145;29;20080;-65
2023/09/19 07:25:29;;;;;;;16.88;12.38;;;18.30;99.90;;;;;;4910970;29;20047;-75
2023/09/19 07:27:59;;;;;;;22.52;11.85;;;18.40;99.90;;;;;;4911373;29;20398;-65
2023/09/19 07:30:27;;;;;;;16.70;11.73;;;18.50;99.90;;;;;;4912558;29;20143;-67
2023/09/19 07:32:54;;;;;;;19.45;13.15;;;18.50;99.90;;;;;;4909085;29;20456;-64
2023/09/19 07:35:21;;;;;;;16.73;11.30;;;18.50;99.90;;;;;;4907185;29;20052;-68
2023/09/19 07:37:49;;;;;;;11.40;10.23;;;18.60;99.90;;;;;;4909883;29;20115;-68
2023/09/19 07:40:18;;;;;;;20.90;10.35;;;18.70;99.90;;;;;;4909523;29;20547;-69
2023/09/19 07:42:46;;;;;;;15.80;9.82;;;18.70;99.90;;;;;;4909573;29;20418;-65
2023/09/19 07:45:14;;;;;;;11.85;9.32;;;18.80;99.90;;;;;;4910355;29;20060;-64
2023/09/19 07:47:48;;;;;;;13.98;9.10;;;18.80;99.90;;;;;;4910927;29;20101;-66
2023/09/19 07:50:18;;;;;;;13.45;10.60;;;18.90;99.90;;;;;;4911998;29;20052;-67
2023/09/19 07:52:47;;;;;;;13.40;9.85;;;18.90;99.90;;;;;;4912145;29;20601;-70
2023/09/19 07:55:19;;;;;;;17.85;12.73;;;18.80;99.90;;;;;;4910496;29;20056;-69
2023/09/19 07:57:46;;;;;;;13.88;10.82;;;18.80;99.90;;;;;;4910912;29;20141;-67
2023/09/19 08:00:14;;;;;;;10.80;9.23;;;18.70;99.90;;;;;;4910187;29;20456;-66
2023/09/19 08:02:41;;;;;;;14.43;9.52;;;18.70;99.90;;;;;;4911258;29;20047;-72
2023/09/19 08:05:10;;;;;;;10.48;9.40;;;18.70;99.90;;;;;;4911457;29;20048;-66
2023/09/19 08:07:43;;;;;;;14.07;9.50;;;18.70;99.90;;;;;;4909676;29;20051;-72
2023/09/19 08:10:15;;;;;;;13.55;9.35;;;18.70;99.90;;;;;;4911641;29;20052;-65
2023/09/19 08:12:46;;;;;;;10.45;7.93;;;18.80;99.90;;;;;;4908688;29;20055;-66
2023/09/19 08:15:21;;;;;;;12.95;7.28;;;18.70;99.90;;;;;;4909386;29;20048;-66
2023/09/19 08:17:49;;;;;;;11.18;8.13;;;18.80;99.90;;;;;;4912921;29;20048;-68
2023/09/19 08:20:17;;;;;;;11.85;7.78;;;18.80;99.90;;;;;;4910028;29;20062;-71
2023/09/19 08:22:49;;;;;;;8.15;6.47;;;18.80;99.90;;;;;;4910038;29;20040;-65
2023/09/19 08:25:19;;;;;;;14.20;7.38;;;18.80;99.90;;;;;;4911605;29;20123;-72
2023/09/19 08:27:48;;;;;;;8.48;6.35;;;18.80;99.90;;;;;;4909784;29;20115;-65
2023/09/19 08:30:30;;;;;;;15.32;7.25;;;18.80;99.90;;;;;;4909905;29;20044;-67
2023/09/19 08:32:58;;;;;;;11.38;5.80;;;18.80;99.90;;;;;;4909510;29;20577;-65
2023/09/19 08:35:26;;;;;;;9.57;6.95;;;18.90;99.90;;;;;;4912614;29;20459;-64
2023/09/19 08:37:55;;;;;;;9.82;5.53;;;18.90;99.90;;;;;;4907344;29;20048;-65
2023/09/19 08:40:23;;;;;;;9.18;5.25;;;19.00;99.90;;;;;;4907182;29;20044;-66
2023/09/19 08:42:53;;;;;;;9.57;4.45;;;19.00;99.90;;;;;;4907680;29;20044;-65
2023/09/19 08:45:23;;;;;;;8.18;4.88;;;19.00;99.90;;;;;;4913000;29;20048;-76
2023/09/19 08:48:08;;;;;;;9.20;5.28;;;19.00;99.90;;;;;;4910020;29;20059;-67
2023/09/19 08:50:44;;;;;;;5.75;5.20;;;19.00;99.90;;;;;;4907550;29;20056;-71
2023/09/19 08:53:14;;;;;;;8.27;5.47;;;19.00;99.90;;;;;;4894427;29;20444;-66
2023/09/19 08:55:43;;;;;;;7.18;5.30;;;19.00;99.90;;;;;;4908897;29;20135;-64
2023/09/19 08:58:13;;;;;;;9.20;5.00;;;19.10;99.90;;;;;;4909304;29;20073;-64
2023/09/19 09:00:42;;;;;;;10.15;5.50;;;19.10;99.90;;;;;;4907799;29;20480;-65
2023/09/19 09:03:10;;;;;;;9.98;4.90;;;19.00;99.90;;;;;;4907797;29;20108;-67
2023/09/19 09:05:41;;;;;;;8.25;5.88;;;19.10;99.90;;;;;;4908964;29;20052;-67
2023/09/19 09:08:10;;;;;;;5.32;4.13;;;19.10;99.90;;;;;;4909262;29;20032;-65
2023/09/19 09:10:38;;;;;;;7.43;4.43;;;19.10;99.90;;;;;;4910347;29;20392;-68
2023/09/19 09:13:06;;;;;;;9.13;5.03;;;19.10;99.90;;;;;;4910350;29;20059;-69
2023/09/19 09:15:36;;;;;;;9.35;4.95;;;19.10;99.90;;;;;;4911970;29;20056;-64
2023/09/19 09:18:04;;;;;;;10.52;5.40;;;18.90;99.90;;;;;;4911296;29;20513;-68
2023/09/19 09:20:31;;;;;;;9.30;6.75;;;18.90;99.90;;;;;;4909433;29;20063;-69
2023/09/19 09:23:00;;;;;;;7.97;6.18;;;18.80;99.90;;;;;;4907602;29;20165;-72
2023/09/19 09:25:47;;;;;;;7.75;4.15;;;18.80;99.90;;;;;;4911033;29;20059;-66
2023/09/19 09:28:19;;;;;;;6.68;5.30;;;18.70;99.90;;;;;;4906815;29;20531;-71
2023/09/19 09:30:47;;;;;;;8.90;4.90;;;18.80;99.90;;;;;;4912339;29;20284;-66
2023/09/19 09:33:16;;;;;;;11.80;6.03;;;18.80;99.90;;;;;;4912558;29;20360;-65
2023/09/19 09:35:59;;;;;;;7.07;4.80;;;18.70;99.90;;;;;;4920526;29;20051;-67
2023/09/19 09:38:43;;;;;;;11.13;5.55;;;18.60;99.90;;;;;;4907443;29;20075;-64
2023/09/19 09:41:15;;;;;;;8.38;4.95;;;18.60;99.90;;;;;;4909098;29;20044;-65
2023/09/19 09:43:46;;;;;;;9.07;4.05;;;18.50;99.90;;;;;;4903860;29;20051;-65
2023/09/19 09:51:48;;;;;;;5.25;3.78;;;18.60;99.90;;;;;;4908857;29;20043;-74
2023/09/19 09:54:17;;;;;;;9.77;4.25;;;18.70;99.90;;;;;;4908606;29;20044;-66
2023/09/19 09:57:23;;;;;;;13.27;4.88;;;18.80;99.90;;;;;;4908477;29;20043;-64
2023/09/19 09:59:55;;;;;;;7.90;4.47;;;18.90;99.90;;;;;;4908065;29;20048;-69
2023/09/19 10:02:32;;;;;;;6.47;3.28;;;18.90;99.90;;;;;;4906153;29;20330;-67
2023/09/19 10:05:43;;;;;;;6.68;3.50;;;18.90;99.90;;;;;;4910240;29;20040;-73
2023/09/19 10:08:12;;;;;;;7.82;4.43;;;18.90;99.90;;;;;;4907860;29;20039;-65
2023/09/19 10:13:12;;;;;;;3.92;3.05;;;18.70;99.90;;;;;;4909168;29;20040;-65
2023/09/19 10:15:46;;;;;;;4.82;3.42;;;18.70;99.90;;;;;;4908332;29;20441;-69
2023/09/19 10:18:18;;;;;;;6.63;2.72;;;18.70;99.90;;;;;;4907574;29;20048;-67
2023/09/19 10:20:47;;;;;;;5.85;3.05;;;18.80;99.90;;;;;;4909636;29;20453;-67
2023/09/19 10:23:20;;;;;;;5.55;3.20;;;18.90;99.90;;;;;;4909231;29;20044;-68
2023/09/19 10:25:48;;;;;;;6.82;2.75;;;18.90;99.90;;;;;;4912152;29;20204;-64
2023/09/19 10:28:21;;;;;;;6.13;2.60;;;19.00;99.90;;;;;;4908972;29;20052;-65
2023/09/19 10:30:52;;;;;;;5.40;2.70;;;19.00;99.90;;;;;;4907395;29;20522;-66
2023/09/19 10:33:25;;;;;;;6.10;2.00;;;19.10;99.90;;;;;;4907373;29;20052;-66
2023/09/19 10:35:56;;;;;;;3.00;2.00;;;19.10;99.90;;;;;;4908409;29;20483;-65
2023/09/19 10:38:26;;;;;;;7.38;2.33;;;19.30;99.90;;;;;;4906705;29;20044;-66
2023/09/19 10:40:56;;;;;;;3.30;2.13;;;19.40;99.90;;;;;;4904474;29;20048;-65
2023/09/19 10:43:29;;;;;;;5.05;1.77;;;19.50;99.90;;;;;;4908073;29;20294;-64
2023/09/19 10:46:05;;;;;;;5.68;2.97;;;19.50;99.90;;;;;;4907692;29;20435;-67
2023/09/19 10:48:33;;;;;;;4.93;2.08;;;19.60;99.90;;;;;;4908602;29;20052;-69
2023/09/19 10:51:10;;;;;;;9.20;2.03;;;19.70;99.90;;;;;;4911861;29;20095;-67
2023/09/19 10:53:51;;;;;;;5.28;3.08;;;19.70;99.90;;;;;;4907347;29;20058;-77
2023/09/19 10:56:24;;;;;;;7.15;2.08;;;19.60;99.90;;;;;;4914593;29;20107;-77
2023/09/19 10:58:51;;;;;;;2.53;1.50;;;19.60;99.90;;;;;;4910265;29;20575;-67
2023/09/19 11:01:20;;;;;;;9.18;2.97;;;19.60;99.90;;;;;;4913987;29;20043;-71
2023/09/19 11:03:49;;;;;;;5.30;1.70;;;19.70;99.90;;;;;;4915948;29;20056;-66
2023/09/19 11:06:18;;;;;;;5.45;1.88;;;19.70;99.90;;;;;;4914437;29;20086;-78
2023/09/19 11:08:56;;;;;;;8.25;3.00;;;19.70;99.90;;;;;;4912072;29;20079;-67
2023/09/19 11:11:41;;;;;;;4.22;1.35;;;19.60;99.90;;;;;;4912092;29;20111;-70
2023/09/19 11:14:41;;;;;;;2.92;2.17;;;19.60;99.90;;;;;;4914419;29;20048;-66
2023/09/19 11:17:11;;;;;;;;;;;19.60;99.90;;;;;;4907098;29;20056;-68
2023/09/19 11:20:24;;;;;;;3.35;1.88;;;19.70;99.90;;;;;;4911030;29;19930;-67
2023/09/19 11:22:56;;;;;;;4.22;1.70;;;19.70;99.90;;;;;;4911401;29;20402;-72
2023/09/19 11:25:30;;;;;;;3.83;2.75;;;19.80;99.90;;;;;;4914431;29;20052;-68
2023/09/19 11:28:21;;;;;;;2.95;1.80;;;19.80;99.90;;;;;;4910777;29;20589;-73
2023/09/19 11:30:49;;;;;;;4.78;0.93;;;19.90;99.90;;;;;;4914644;29;20521;-67
2023/09/19 11:33:28;;;;;;;3.78;1.70;;;19.80;99.90;;;;;;4913462;29;20048;-64
2023/09/19 11:36:11;;;;;;;2.33;1.25;;;19.80;99.90;;;;;;4912704;29;20130;-67
2023/09/19 11:38:45;;;;;;;4.63;1.48;;;19.90;99.90;;;;;;4911785;29;20044;-65
2023/09/19 11:41:21;;;;;;;5.63;1.33;;;20.00;99.90;;;;;;4909802;29;20505;-67
2023/09/19 11:44:06;;;;;;;3.13;1.63;;;19.90;99.90;;;;;;4912433;29;20096;-66
2023/09/19 11:46:34;;;;;;;3.60;1.23;;;19.90;99.90;;;;;;4912447;29;20059;-65
2023/09/19 11:49:10;;;;;;;7.15;2.97;;;20.00;99.90;;;;;;4913682;29;20074;-70
2023/09/19 11:51:45;;;;;;;2.30;1.63;;;20.00;99.90;;;;;;4915450;29;20048;-69
2023/09/19 11:54:17;;;;;;;3.90;1.80;;;20.10;99.90;;;;;;4913097;29;20060;-73
2023/09/19 11:56:48;;;;;;;3.70;1.70;;;20.00;99.90;;;;;;4907920;29;20495;-77
2023/09/19 11:59:29;;;;;;;3.30;1.55;;;20.10;99.90;;;;;;4917034;29;20048;-68
2023/09/19 12:02:08;;;;;;;3.20;1.38;;;20.10;99.90;;;;;;4909045;29;20055;-76
2023/09/19 12:04:43;;;;;;;3.37;1.50;;;20.10;99.90;;;;;;4913647;29;20455;-67
2023/09/19 12:07:15;;;;;;;3.75;2.40;;;20.10;99.90;;;;;;4911296;29;20159;-70
2023/09/19 12:09:47;;;;;;;7.85;1.85;;;20.10;99.90;;;;;;4912173;29;20056;-66
2023/09/19 12:12:28;;;;;;;7.18;2.22;;;20.00;99.90;;;;;;4911522;29;20166;-68
2023/09/19 12:14:59;;;;;;;3.15;1.98;;;20.00;99.90;;;;;;4911552;29;20119;-65
2023/09/19 12:17:44;;;;;;;6.07;1.88;;;19.90;99.90;;;;;;4910706;29;20134;-66
2023/09/19 12:20:14;;;;;;;4.97;1.83;;;19.90;99.90;;;;;;4911086;29;20540;-69
2023/09/19 12:22:46;;;;;;;2.30;1.42;;;19.90;99.90;;;;;;4908567;29;20048;-68
2023/09/19 12:25:16;;;;;;;7.55;2.13;;;19.90;99.90;;;;;;4910433;29;20052;-70
2023/09/19 12:27:52;;;;;;;5.47;2.13;;;20.10;99.90;;;;;;4912517;29;20048;-65
2023/09/19 12:30:27;;;;;;;3.38;2.30;;;20.00;99.90;;;;;;4911566;29;20055;-75
2023/09/19 12:32:55;;;;;;;5.68;1.85;;;20.00;99.90;;;;;;4912375;29;20105;-66
2023/09/19 12:35:36;;;;;;;4.88;2.05;;;19.80;99.90;;;;;;4911027;29;20059;-67
2023/09/19 12:38:03;;;;;;;6.78;2.45;;;19.60;99.90;;;;;;4910316;29;20048;-67
2023/09/19 12:40:33;;;;;;;6.65;3.05;;;19.50;99.90;;;;;;4913149;29;20056;-67
2023/09/19 12:43:02;;;;;;;3.40;1.83;;;19.40;99.90;;;;;;4914348;29;20058;-72
2023/09/19 12:45:30;;;;;;;6.15;1.88;;;19.40;99.90;;;;;;4911613;29;20530;-65
2023/09/19 12:48:31;;;;;;;8.23;1.98;;;19.30;99.90;;;;;;4909515;29;20052;-65
2023/09/19 12:51:09;;;;;;;;;;;19.20;99.90;;;;;;4914977;29;20044;-73
2023/09/19 12:53:42;;;;;;;9.68;3.35;;;19.10;99.90;;;;;;4911686;29;19927;-66
2023/09/19 12:56:15;;;;;;;4.85;1.90;;;19.00;99.90;;;;;;4911898;29;20044;-71
2023/09/19 12:58:58;;;;;;;5.63;2.25;;;18.90;99.90;;;;;;4909892;29;20044;-71
2023/09/19 13:01:27;;;;;;;3.40;1.52;;;18.90;99.90;;;;;;4915572;29;20044;-67
2023/09/19 13:04:20;;;;;;;7.07;2.00;;;18.90;99.90;;;;;;4913780;29;20623;-68